Euro IV — IQNH — position and weather

sailwx.info

Track history (hours):
 
Tides and Currents Weather Stations Pressure Air Temp Water Temp Dewpoint Dewpoint Depression Visibility Wind Speed Wind Dir Waves Ship Positions

Euro IV

Last reported at 2014-Oct-01 09:28 UTC. Time now 2014-Oct-01 10:29 UTC.
Position N 44°06' E 009°44'.

Length 25 m; draft 1.3 m.

Type: Passenger vessel. MMSI: 247131500.

Date/timePositionNaut miles runAvg speedWind from/ knotsBaromVisibWave heightAir tempDewpointWater temp
2014-Oct-01 09:28N 44°06' E 009°44'1 1.2
2014-Oct-01 08:25N 44°07' E 009°43'1 1.1
2014-Oct-01 07:33N 44°06' E 009°44'4 0.2
2014-Sep-30 12:09N 44°06' E 009°49'711.4
2014-Sep-30 11:33N 44°00' E 009°54'1 0.7
2014-Sep-30 10:33N 43°59' E 009°54'0 0.3
2014-Sep-30 09:33N 43°59' E 009°54'0 0.5
2014-Sep-30 08:33N 43°59' E 009°54'1 0.8
2014-Sep-30 07:33N 43°59' E 009°53'5 5.2
2014-Sep-30 06:34N 44°04' E 009°51'3 0.1
2014-Sep-28 07:18N 44°06' E 009°49'  
2014-Sep-25 14:08N 44°06' E 009°49'0 0.0
2014-Sep-25 13:31N 44°06' E 009°50'0 0.0
2014-Sep-25 12:33N 44°06' E 009°50'0 0.0
2014-Sep-25 11:33N 44°06' E 009°50'0 0.0
2014-Sep-25 10:33N 44°06' E 009°50'0 0.0
2014-Sep-25 09:33N 44°06' E 009°50'0 0.0
2014-Sep-25 08:33N 44°06' E 009°50'0 0.0
2014-Sep-25 07:33N 44°06' E 009°50'0 0.0
2014-Sep-24 14:33N 44°06' E 009°50'0 0.0
2014-Sep-24 13:33N 44°06' E 009°50'0 0.0
2014-Sep-24 12:33N 44°06' E 009°50'0 0.0
2014-Sep-24 11:33N 44°06' E 009°50'0 0.0
2014-Sep-24 10:33N 44°06' E 009°50'0 0.0
2014-Sep-24 09:33N 44°06' E 009°50'0 0.0
2014-Sep-24 08:33N 44°06' E 009°50'0 0.0
2014-Sep-23 18:08N 44°06' E 009°50'3 5.2
2014-Sep-23 17:33N 44°04' E 009°47'9 8.6
2014-Sep-23 16:28N 44°09' E 009°37'6 6.2
2014-Sep-23 15:28N 44°06' E 009°44'5 5.7
2014-Sep-23 14:33N 44°03' E 009°50'4 4.4
2014-Sep-23 13:33N 44°05' E 009°44'5 5.4
2014-Sep-23 12:33N 44°09' E 009°39'0 0.1
2014-Sep-23 11:33N 44°09' E 009°39'4 3.7
2014-Sep-23 10:33N 44°06' E 009°44'8 8.1
2014-Sep-23 09:33N 44°04' E 009°55'3 3.4
2014-Sep-23 08:34N 44°06' E 009°50'1 0.6
2014-Sep-23 07:34N 44°06' E 009°50'0 0.5
2014-Sep-23 06:33N 44°06' E 009°50'0 0.0
2014-Sep-22 16:13N 44°06' E 009°50'3 4.7
2014-Sep-22 15:33N 44°03' E 009°50'0 0.0
2014-Sep-22 14:33N 44°03' E 009°50'3 3.3
2014-Sep-22 13:33N 44°06' E 009°50'0 0.4
2014-Sep-22 12:33N 44°06' E 009°50'0 0.2
2014-Sep-22 11:33N 44°06' E 009°50'0 0.0
2014-Sep-22 10:33N 44°06' E 009°50'3 3.0
2014-Sep-22 09:33N 44°04' E 009°47'2 1.9
2014-Sep-22 08:34N 44°05' E 009°45'4 3.7
2014-Sep-22 07:33N 44°06' E 009°50'0 0.3
2014-Sep-22 06:33N 44°06' E 009°50'0 0.0
2014-Sep-21 15:33N 44°06' E 009°50'6 5.9
2014-Sep-21 14:34N 44°07' E 009°42'1 1.1
2014-Sep-21 13:16N 44°08' E 009°41'1 1.6
2014-Sep-21 12:33N 44°09' E 009°39'0 0.0
2014-Sep-21 11:33N 44°09' E 009°39'0 0.3
2014-Sep-21 10:33N 44°08' E 009°39'2 2.2
2014-Sep-21 09:32N 44°07' E 009°42'  
Track history (hours):
 
Tides and Currents Weather Stations Pressure Air Temp Water Temp Dewpoint Dewpoint Depression Visibility Wind Speed Wind Dir Waves Ship Positions

Euro IV

Last reported at 2014-Oct-01 09:28 UTC. Time now 2014-Oct-01 10:29 UTC.
Position N 44°06' E 009°44'.

Length 25 m; draft 1.3 m.

Type: Passenger vessel. MMSI: 247131500.

Date/timePositionNaut miles runAvg speedWind from/ knotsBaromVisibWave heightAir tempDewpointWater temp
2014-Oct-01 09:28N 44°06' E 009°44'1 1.2
2014-Oct-01 08:25N 44°07' E 009°43'1 1.1
2014-Oct-01 07:33N 44°06' E 009°44'4 0.2
2014-Sep-30 12:09N 44°06' E 009°49'711.4
2014-Sep-30 11:33N 44°00' E 009°54'1 0.7
2014-Sep-30 10:33N 43°59' E 009°54'0 0.3
2014-Sep-30 09:33N 43°59' E 009°54'0 0.5
2014-Sep-30 08:33N 43°59' E 009°54'1 0.8
2014-Sep-30 07:33N 43°59' E 009°53'5 5.2
2014-Sep-30 06:34N 44°04' E 009°51'3 0.1
2014-Sep-28 07:18N 44°06' E 009°49'  
2014-Sep-25 14:08N 44°06' E 009°49'0 0.0
2014-Sep-25 13:31N 44°06' E 009°50'0 0.0
2014-Sep-25 12:33N 44°06' E 009°50'0 0.0
2014-Sep-25 11:33N 44°06' E 009°50'0 0.0
2014-Sep-25 10:33N 44°06' E 009°50'0 0.0
2014-Sep-25 09:33N 44°06' E 009°50'0 0.0
2014-Sep-25 08:33N 44°06' E 009°50'0 0.0
2014-Sep-25 07:33N 44°06' E 009°50'0 0.0
2014-Sep-24 14:33N 44°06' E 009°50'0 0.0
2014-Sep-24 13:33N 44°06' E 009°50'0 0.0
2014-Sep-24 12:33N 44°06' E 009°50'0 0.0
2014-Sep-24 11:33N 44°06' E 009°50'0 0.0
2014-Sep-24 10:33N 44°06' E 009°50'0 0.0
2014-Sep-24 09:33N 44°06' E 009°50'0 0.0
2014-Sep-24 08:33N 44°06' E 009°50'0 0.0
2014-Sep-23 18:08N 44°06' E 009°50'3 5.2
2014-Sep-23 17:33N 44°04' E 009°47'9 8.6
2014-Sep-23 16:28N 44°09' E 009°37'6 6.2
2014-Sep-23 15:28N 44°06' E 009°44'5 5.7
2014-Sep-23 14:33N 44°03' E 009°50'4 4.4
2014-Sep-23 13:33N 44°05' E 009°44'5 5.4
2014-Sep-23 12:33N 44°09' E 009°39'0 0.1
2014-Sep-23 11:33N 44°09' E 009°39'4 3.7
2014-Sep-23 10:33N 44°06' E 009°44'8 8.1
2014-Sep-23 09:33N 44°04' E 009°55'3 3.4
2014-Sep-23 08:34N 44°06' E 009°50'1 0.6
2014-Sep-23 07:34N 44°06' E 009°50'0 0.5
2014-Sep-23 06:33N 44°06' E 009°50'0 0.0
2014-Sep-22 16:13N 44°06' E 009°50'3 4.7
2014-Sep-22 15:33N 44°03' E 009°50'0 0.0
2014-Sep-22 14:33N 44°03' E 009°50'3 3.3
2014-Sep-22 13:33N 44°06' E 009°50'0 0.4
2014-Sep-22 12:33N 44°06' E 009°50'0 0.2
2014-Sep-22 11:33N 44°06' E 009°50'0 0.0
2014-Sep-22 10:33N 44°06' E 009°50'3 3.0
2014-Sep-22 09:33N 44°04' E 009°47'2 1.9
2014-Sep-22 08:34N 44°05' E 009°45'4 3.7
2014-Sep-22 07:33N 44°06' E 009°50'0 0.3
2014-Sep-22 06:33N 44°06' E 009°50'0 0.0
2014-Sep-21 15:33N 44°06' E 009°50'6 5.9
2014-Sep-21 14:34N 44°07' E 009°42'1 1.1
2014-Sep-21 13:16N 44°08' E 009°41'1 1.6
2014-Sep-21 12:33N 44°09' E 009°39'0 0.0
2014-Sep-21 11:33N 44°09' E 009°39'0 0.3
2014-Sep-21 10:33N 44°08' E 009°39'2 2.2
2014-Sep-21 09:32N 44°07' E 009°42'  

Dump ship's entire track history